Time;durP1;ratioP1;P1;durP2;ratioP2;P2;SDS_P1;SDS_P2;PMS_P1;PMS_P2;Temp;Humidity;BMP_temperature;BMP_pressure;BME280_temperature;BME280_humidity;BME280_pressure;Samples;Min_cycle;Max_cycle;Signal;HPM_P1;HPM_P2
2023/01/02 10:20:14;;;;;;;3.27;2.47;;;;;;;15.59;69.16;99156.28;6257151;22;1497768;-87
2023/01/02 10:22:49;;;;;;;4.73;2.47;;;;;;;15.97;66.60;99151.44;6292949;22;38686;-86
2023/01/02 10:25:22;;;;;;;5.07;2.57;;;;;;;16.25;66.02;99160.75;6295571;22;41017;-87
2023/01/02 10:27:54;;;;;;;5.27;2.50;;;;;;;16.25;61.03;99127.84;6297044;22;42018;-87
2023/01/02 10:30:24;;;;;;;4.40;2.47;;;;;;;17.28;58.80;99172.69;6294211;22;41350;-86
2023/01/02 10:33:00;;;;;;;5.80;3.03;;;;;;;18.04;58.44;99144.66;6293519;22;40258;-90
2023/01/02 10:35:41;;;;;;;6.20;3.00;;;;;;;18.83;57.19;99158.94;6293350;22;41099;-85
2023/01/02 10:38:11;;;;;;;4.70;2.90;;;;;;;18.97;55.49;99160.34;6291615;22;41778;-87
2023/01/02 10:40:44;;;;;;;5.60;2.70;;;;;;;19.30;50.96;99205.56;6291158;22;41686;-86
2023/01/02 10:43:13;;;;;;;5.27;2.10;;;;;;;19.32;52.40;99190.16;6293782;22;40612;-88
2023/01/02 10:45:41;;;;;;;5.73;2.40;;;;;;;18.99;52.32;99169.97;6292222;22;41347;-87
2023/01/02 10:48:12;;;;;;;5.17;2.33;;;;;;;18.89;51.56;99174.50;6292246;22;42418;-88
2023/01/02 10:50:46;;;;;;;9.13;3.03;;;;;;;18.94;51.72;99201.75;6293467;22;41485;-88
2023/01/02 10:53:21;;;;;;;3.90;2.20;;;;;;;18.67;51.79;99169.38;6292452;22;38758;-89
2023/01/02 10:55:53;;;;;;;4.27;2.20;;;;;;;18.67;51.39;99185.47;6290108;22;42910;-88
2023/01/02 10:58:23;;;;;;;3.77;2.10;;;;;;;18.61;50.99;99184.19;6291563;22;42043;-88
2023/01/02 11:03:45;;;;;;;6.90;2.03;;;;;;;18.06;49.78;99139.97;6288714;22;39766;-88
2023/01/02 11:06:22;;;;;;;4.23;1.73;;;;;;;18.06;50.13;99152.53;6290708;22;40897;-87
2023/01/02 11:08:57;;;;;;;6.13;2.20;;;;;;;18.09;49.76;99163.00;6291259;22;42240;-87
2023/01/02 11:11:26;;;;;;;4.13;2.33;;;;;;;18.24;48.31;99194.66;6291602;22;42276;-90
2023/01/02 11:13:56;;;;;;;5.73;2.40;;;;;;;18.21;48.90;99194.94;6291599;22;41477;-88
2023/01/02 11:16:26;;;;;;;6.90;2.13;;;;;;;18.24;48.57;99177.72;6292347;22;41706;-88
2023/01/02 11:18:57;;;;;;;6.93;1.93;;;;;;;18.11;47.62;99121.66;6290749;22;43116;-87
2023/01/02 11:21:33;;;;;;;5.07;1.97;;;;;;;19.31;46.24;99192.97;6288017;22;42971;-92
2023/01/02 11:24:06;;;;;;;4.13;2.37;;;;;;;19.57;45.82;99159.19;6312938;22;38903;-88
2023/01/02 11:26:38;;;;;;;9.93;2.23;;;;;;;19.78;44.16;99148.22;6260257;22;40480;-88
2023/01/02 11:29:09;;;;;;;4.90;2.37;;;;;;;20.21;44.11;99205.94;6286365;22;43106;-88
2023/01/02 11:32:17;;;;;;;5.57;2.00;;;;;;;19.96;44.45;99167.97;6284253;22;43791;-87
2023/01/02 11:34:55;;;;;;;5.33;2.20;;;;;;;19.73;44.19;99164.78;6284620;22;39173;-88
2023/01/02 11:38:03;;;;;;;4.13;1.90;;;;;;;19.58;43.49;99166.25;6282157;22;40973;-85
2023/01/02 11:41:01;;;;;;;7.17;1.97;;;;;;;19.78;43.25;99198.47;6284339;22;42692;-89
2023/01/02 11:44:00;;;;;;;4.93;1.80;;;;;;;19.86;43.40;99169.00;6285900;22;42310;-85
2023/01/02 11:46:31;;;;;;;4.50;2.70;;;;;;;20.36;43.15;99167.66;6314263;22;39396;-83
2023/01/02 11:49:04;;;;;;;6.13;2.20;;;;;;;20.96;42.46;99183.28;6291381;22;42153;-87
2023/01/02 11:51:35;;;;;;;8.57;3.13;;;;;;;21.72;40.46;99206.00;6290240;22;41708;-86
2023/01/02 11:54:06;;;;;;;6.20;2.10;;;;;;;22.48;39.90;99175.56;6291424;22;41297;-87
2023/01/02 11:56:40;;;;;;;7.03;2.30;;;;;;;22.73;39.06;99211.59;6291710;22;39025;-89
2023/01/02 11:59:17;;;;;;;3.63;1.90;;;;;;;23.00;38.21;99238.34;6291925;22;40941;-87
2023/01/02 12:01:55;;;;;;;5.77;2.30;;;;;;;23.52;37.53;99230.00;6290542;22;43109;-87
2023/01/02 12:04:24;;;;;;;5.83;2.43;;;;;;;23.97;36.47;99235.72;6289999;22;41584;-87
2023/01/02 12:07:08;;;;;;;2.97;1.90;;;;;;;24.07;36.94;99234.66;6290291;22;39194;-87
2023/01/02 12:09:44;;;;;;;5.10;2.00;;;;;;;23.93;37.70;99222.69;6290678;22;42005;-87
2023/01/02 12:12:48;;;;;;;4.87;1.97;;;;;;;23.68;36.99;99234.56;6289982;22;44689;-82
2023/01/02 12:15:39;;;;;;;3.50;2.00;;;;;;;23.66;36.13;99248.25;6283389;22;41147;-86
2023/01/02 12:18:21;;;;;;;4.73;2.17;;;;;;;24.07;36.04;99250.91;6290886;22;38917;-89
2023/01/02 12:20:56;;;;;;;6.40;3.03;;;;;;;24.20;33.93;99234.97;6288631;22;40648;-88
2023/01/02 12:23:37;;;;;;;7.57;2.27;;;;;;;25.46;33.74;99252.00;6290388;22;41994;-88
2023/01/02 12:26:12;;;;;;;6.37;2.60;;;;;;;27.44;31.65;99245.69;6310465;22;42483;-88
2023/01/02 12:29:13;;;;;;;2.70;1.80;;;;;;;29.46;27.86;99280.09;6291485;22;39940;-87
2023/01/02 12:32:09;;;;;;;4.27;2.43;;;;;;;30.15;27.48;99285.22;6289301;22;40864;-88
2023/01/02 12:34:57;;;;;;;5.50;2.67;;;;;;;30.34;26.46;99237.91;6291359;22;42395;-90
2023/01/02 12:37:36;;;;;;;10.23;2.73;;;;;;;31.28;25.22;99276.50;6290928;22;41235;-90
2023/01/02 12:40:23;;;;;;;3.80;1.77;;;;;;;31.86;25.86;99287.34;6291187;22;39224;-87
2023/01/02 12:43:10;;;;;;;7.20;2.47;;;;;;;31.94;24.27;99288.94;6290159;22;40562;-88
2023/01/02 12:45:52;;;;;;;6.40;2.77;;;;;;;31.27;24.75;99309.59;6291580;22;41553;-91
2023/01/02 12:48:32;;;;;;;5.77;2.20;;;;;;;31.11;25.70;99288.19;6289524;22;42366;-89
2023/01/02 12:51:13;;;;;;;5.30;2.03;;;;;;;30.75;26.00;99277.78;6289745;22;39036;-87
2023/01/02 12:54:11;;;;;;;5.20;2.10;;;;;;;30.36;25.68;99279.53;6289728;22;41371;-85
2023/01/02 12:56:45;;;;;;;7.87;2.23;;;;;;;29.83;26.83;99265.03;6289123;22;41647;-85
2023/01/02 12:59:29;;;;;;;4.33;2.47;;;;;;;29.17;27.55;99263.00;6290558;22;41407;-87
2023/01/02 13:02:04;;;;;;;5.70;2.10;;;;;;;28.33;28.36;99262.34;6317061;22;39270;-86
2023/01/02 13:04:36;;;;;;;5.60;1.93;;;;;;;27.43;29.25;99249.44;6289398;22;42277;-90
2023/01/02 13:07:13;;;;;;;9.77;2.27;;;;;;;26.74;30.15;99256.31;6289779;22;41893;-88
2023/01/02 13:09:43;;;;;;;6.90;2.03;;;;;;;25.83;30.53;99222.22;6289939;22;41030;-86
2023/01/02 13:12:15;;;;;;;6.33;2.00;;;;;;;24.96;31.80;99237.09;6290538;22;39187;-88
2023/01/02 13:14:45;;;;;;;7.33;2.17;;;;;;;24.03;32.71;99223.34;6290129;22;41862;-85
2023/01/02 13:17:33;;;;;;;5.13;1.87;;;;;;;23.33;34.21;99239.25;6290327;22;42453;-87
2023/01/02 13:20:11;;;;;;;2.30;1.80;;;;;;;22.61;35.32;99221.00;6291196;22;41529;-89
2023/01/02 13:22:46;;;;;;;6.17;2.07;;;;;;;22.18;36.56;99239.84;6290715;22;38772;-86
2023/01/02 13:25:16;;;;;;;5.00;2.40;;;;;;;21.35;37.13;99186.53;6289547;22;40690;-85
2023/01/02 13:27:46;;;;;;;7.07;2.83;;;;;;;21.06;38.41;99209.13;6316906;22;41283;-86
2023/01/02 13:30:43;;;;;;;4.83;2.20;;;;;;;20.77;38.77;99220.09;6289920;22;41291;-85
2023/01/02 13:33:29;;;;;;;6.37;1.87;;;;;;;20.30;39.83;99194.28;6289318;22;38835;-86
2023/01/02 13:36:00;;;;;;;3.10;1.83;;;;;;;19.98;40.33;99200.09;6314775;22;40899;-84
2023/01/02 13:38:31;;;;;;;5.23;2.17;;;;;;;19.66;40.92;99182.47;6289801;22;41568;-85
2023/01/02 13:41:00;;;;;;;7.43;2.27;;;;;;;19.39;41.81;99179.69;6289225;22;41174;-85
2023/01/02 13:43:30;;;;;;;9.43;2.40;;;;;;;19.22;42.07;99185.78;6332721;22;40064;-86
2023/01/02 13:45:59;;;;;;;6.50;2.60;;;;;;;19.15;42.30;99195.41;6309539;22;40679;-85
2023/01/02 13:48:34;;;;;;;5.07;1.97;;;;;;;18.95;43.25;99190.03;6309847;22;42044;-83
2023/01/02 13:51:05;;;;;;;5.30;2.13;;;;;;;18.91;43.05;99211.94;6306207;22;42153;-81
2023/01/02 13:53:38;;;;;;;5.13;1.80;;;;;;;18.73;43.58;99214.44;6335478;22;38690;-84
2023/01/02 13:56:12;;;;;;;7.07;2.33;;;;;;;18.53;44.05;99193.91;6308461;22;41160;-85
2023/01/02 13:58:46;;;;;;;3.70;2.00;;;;;;;18.49;44.45;99197.84;6294373;22;43350;-85
2023/01/02 14:01:40;;;;;;;5.70;2.63;;;;;;;18.28;45.09;99185.38;6292931;22;40753;-85
2023/01/02 14:04:37;;;;;;;3.67;1.80;;;;;;;18.27;44.88;99207.81;6292475;22;40678;-86
2023/01/02 14:07:44;;;;;;;4.77;1.90;;;;;;;18.14;45.03;99204.50;6290582;22;42130;-85
2023/01/02 14:10:19;;;;;;;5.00;2.27;;;;;;;17.98;45.50;99196.09;6289837;22;43335;-83
2023/01/02 14:12:51;;;;;;;5.07;2.23;;;;;;;17.97;45.55;99213.16;6287773;22;42072;-82
2023/01/02 14:15:21;;;;;;;8.00;2.30;;;;;;;17.92;45.80;99204.69;6287225;22;40115;-83
2023/01/02 14:17:59;;;;;;;4.70;2.37;;;;;;;17.87;45.87;99207.75;6287515;22;43608;-81
2023/01/02 14:20:31;;;;;;;7.80;2.83;;;;;;;17.75;46.33;99207.97;6286110;22;42272;-81
2023/01/02 14:23:01;;;;;;;6.33;2.60;;;;;;;17.63;46.81;99203.66;6287695;22;40744;-83
2023/01/02 14:25:31;;;;;;;7.20;2.30;;;;;;;17.53;47.05;99215.16;6313282;22;39953;-82
2023/01/02 14:28:01;;;;;;;7.07;3.23;;;;;;;17.43;47.46;99208.84;6310692;22;43302;-83
2023/01/02 14:30:36;;;;;;;5.73;2.70;;;;;;;17.43;48.12;99224.94;6285644;22;42209;-82
2023/01/02 14:33:06;;;;;;;5.83;2.30;;;;;;;17.35;48.10;99230.09;6285538;22;42237;-83
2023/01/02 14:35:40;;;;;;;4.60;2.10;;;;;;;17.32;48.15;99238.38;6285569;22;39103;-82
2023/01/02 14:38:12;;;;;;;4.47;2.00;;;;;;;17.35;49.10;99254.19;6287306;22;40728;-82
2023/01/02 14:40:41;;;;;;;6.17;2.57;;;;;;;17.18;49.54;99226.13;6288030;22;41445;-84
2023/01/02 14:43:29;;;;;;;3.87;2.00;;;;;;;17.19;49.78;99243.91;6312485;22;42370;-83
2023/01/02 14:46:05;;;;;;;3.97;1.80;;;;;;;17.05;50.27;99224.66;6288555;22;38904;-83
2023/01/02 14:48:39;;;;;;;4.63;2.20;;;;;;;17.17;50.78;99245.88;6289791;22;40977;-82
2023/01/02 14:51:21;;;;;;;6.73;2.60;;;;;;;16.99;50.82;99246.53;6291672;22;42268;-82
2023/01/02 14:53:52;;;;;;;9.40;3.63;;;;;;;16.91;51.49;99257.03;6288319;22;41439;-83
2023/01/02 14:56:24;;;;;;;4.07;2.30;;;;;;;16.77;51.63;99248.31;6289794;22;39181;-83
2023/01/02 14:58:53;;;;;;;3.10;2.00;;;;;;;16.66;51.74;99261.72;6342093;22;41694;-82
2023/01/02 15:01:23;;;;;;;5.03;1.60;;;;;;;16.54;51.99;99251.97;6289357;22;44429;-83
2023/01/02 15:03:58;;;;;;;2.67;1.70;;;;;;;16.58;52.94;99280.16;6288842;22;41313;-86
2023/01/02 15:06:40;;;;;;;4.53;1.50;;;;;;;16.42;53.12;99250.28;6289592;22;38342;-80
2023/01/02 15:09:21;;;;;;;3.70;1.60;;;;;;;16.41;53.57;99267.31;6314169;22;42065;-85
2023/01/02 15:14:42;;;;;;;3.20;1.60;;;;;;;16.09;55.19;99251.13;6258055;22;41271;-83
2023/01/02 15:17:13;;;;;;;2.70;1.40;;;;;;;16.04;55.26;99259.53;6288325;22;39220;-81
2023/01/02 15:19:42;;;;;;;4.33;1.33;;;;;;;15.98;55.60;99265.34;6289221;22;41847;-82
2023/01/02 15:22:16;;;;;;;3.20;1.70;;;;;;;15.93;55.91;99266.69;6289126;22;41677;-83
2023/01/02 15:24:47;;;;;;;3.97;2.00;;;;;;;15.92;55.89;99273.84;6289166;22;41851;-82
2023/01/02 15:27:23;;;;;;;4.80;1.90;;;;;;;15.88;56.16;99266.19;6314702;22;40353;-81
2023/01/02 15:29:52;;;;;;;3.40;2.03;;;;;;;15.82;56.68;99266.66;6342577;22;42783;-85
2023/01/02 15:32:23;;;;;;;6.43;2.53;;;;;;;15.65;56.69;99251.94;6289640;22;41387;-82
2023/01/02 15:34:51;;;;;;;4.07;2.33;;;;;;;15.65;57.28;99279.47;6288260;22;42637;-83
2023/01/02 15:37:22;;;;;;;4.03;1.93;;;;;;;15.53;57.51;99268.84;6314870;22;39930;-82
2023/01/02 15:39:52;;;;;;;3.27;1.87;;;;;;;15.52;57.40;99268.00;6288801;22;40618;-83
2023/01/02 15:45:14;;;;;;;5.83;2.60;;;;;;;15.27;58.51;99242.31;6316272;22;41977;-82
2023/01/02 15:47:45;;;;;;;2.97;2.07;;;;;;;15.31;58.84;99265.16;6290082;22;40287;-85
2023/01/02 15:50:18;;;;;;;4.20;2.10;;;;;;;15.27;58.90;99254.81;6290134;22;41039;-83
2023/01/02 15:52:49;;;;;;;6.07;2.77;;;;;;;15.29;59.24;99267.09;6290487;22;41910;-84
2023/01/02 15:55:18;;;;;;;4.60;2.03;;;;;;;15.09;59.60;99235.69;6289840;22;41400;-83
2023/01/02 15:57:52;;;;;;;4.03;2.20;;;;;;;15.15;59.90;99253.91;6316109;22;39777;-84
2023/01/02 16:00:32;;;;;;;7.33;1.77;;;;;;;15.09;60.06;99271.22;6289588;22;41628;-83
2023/01/02 16:03:00;;;;;;;3.17;2.00;;;;;;;14.72;60.69;99213.56;6289920;22;43306;-83
2023/01/02 16:05:29;;;;;;;5.43;2.00;;;;;;;14.96;60.49;99264.28;6316229;22;43892;-84
2023/01/02 16:07:59;;;;;;;4.63;2.07;;;;;;;14.73;60.40;99233.94;6290311;22;39152;-84
2023/01/02 16:10:29;;;;;;;2.80;1.73;;;;;;;14.47;60.75;99198.53;6290202;22;41905;-83
2023/01/02 16:13:03;;;;;;;4.60;2.20;;;;;;;14.47;61.14;99208.34;6289882;22;41785;-83
2023/01/02 16:15:34;;;;;;;3.63;2.47;;;;;;;14.74;61.29;99263.16;6290489;22;43537;-84
2023/01/02 16:18:03;;;;;;;3.90;2.10;;;;;;;14.82;61.58;99288.44;6290049;22;39044;-84
2023/01/02 16:20:31;;;;;;;7.43;2.00;;;;;;;14.50;61.25;99224.13;6290112;22;40556;-84
2023/01/02 16:23:04;;;;;;;4.67;2.13;;;;;;;14.56;61.38;99242.34;6289806;22;43635;-83
2023/01/02 16:25:34;;;;;;;3.30;1.77;;;;;;;14.90;61.29;99292.22;6290255;22;41199;-84
2023/01/02 16:28:06;;;;;;;6.73;3.40;;;;;;;14.93;61.28;99301.84;6291286;22;40470;-82
2023/01/02 16:30:36;;;;;;;4.57;2.20;;;;;;;14.79;61.28;99273.50;6317760;22;41630;-82
2023/01/02 16:33:06;;;;;;;5.07;1.90;;;;;;;14.83;61.46;99284.81;6316464;22;41833;-81
2023/01/02 16:35:35;;;;;;;5.60;2.67;;;;;;;14.91;61.16;99293.09;6290930;22;41129;-83
2023/01/02 16:38:18;;;;;;;2.73;1.73;;;;;;;14.84;61.53;99291.81;6317316;22;40176;-86
2023/01/02 16:40:51;;;;;;;6.93;2.40;;;;;;;14.56;62.14;99245.84;6292104;22;40628;-83
2023/01/02 16:43:21;;;;;;;5.27;2.40;;;;;;;14.85;62.08;99293.53;6289066;22;43000;-84
2023/01/02 16:45:51;;;;;;;6.70;2.57;;;;;;;14.62;62.62;99266.72;6290051;22;42230;-86
2023/01/02 16:48:21;;;;;;;4.33;2.03;;;;;;;14.64;62.26;99280.78;6289682;22;39095;-81
2023/01/02 16:50:51;;;;;;;5.30;2.50;;;;;;;14.70;62.55;99301.69;6315882;22;41007;-81
2023/01/02 16:53:24;;;;;;;3.13;1.90;;;;;;;14.63;62.44;99279.09;6289480;22;41737;-83
2023/01/02 16:55:52;;;;;;;3.87;2.03;;;;;;;14.71;62.67;99308.69;6290263;22;43543;-81
2023/01/02 16:58:20;;;;;;;6.27;2.87;;;;;;;14.65;62.65;99297.66;6289364;22;40390;-82
2023/01/02 17:00:49;;;;;;;3.93;2.10;;;;;;;14.66;63.10;99292.22;6343081;22;41771;-82
2023/01/02 17:03:19;;;;;;;7.97;2.40;;;;;;;14.72;63.47;99314.88;6314476;22;43035;-83
2023/01/02 17:05:49;;;;;;;5.10;2.17;;;;;;;14.64;63.17;99295.94;6289605;22;41335;-82
2023/01/02 17:08:17;;;;;;;7.80;2.67;;;;;;;14.57;63.70;99300.88;6314842;22;38968;-79
2023/01/02 17:10:46;;;;;;;4.07;2.27;;;;;;;14.47;63.90;99299.81;6315220;22;41061;-84
2023/01/02 17:13:13;;;;;;;4.37;2.20;;;;;;;14.28;64.79;99286.06;6342665;22;42856;-84
2023/01/02 17:15:41;;;;;;;5.67;2.10;;;;;;;14.33;65.10;99308.78;6289863;22;41348;-81
2023/01/02 17:18:09;;;;;;;3.87;2.30;;;;;;;14.20;65.93;99294.59;6288956;22;40271;-80
2023/01/02 17:20:37;;;;;;;5.00;3.20;;;;;;;14.34;65.97;99320.28;6289687;22;40530;-82
2023/01/02 17:23:06;;;;;;;6.13;2.43;;;;;;;14.16;66.44;99289.59;6289089;22;43356;-81
2023/01/02 17:25:34;;;;;;;5.47;2.70;;;;;;;14.32;66.71;99317.72;6289722;22;42462;-79
2023/01/02 17:28:03;;;;;;;5.43;2.70;;;;;;;14.35;66.78;99321.97;6315332;22;39209;-80
2023/01/02 17:30:31;;;;;;;5.77;2.20;;;;;;;14.18;67.11;99303.66;6315402;22;42558;-80
2023/01/02 17:32:58;;;;;;;6.37;2.57;;;;;;;14.39;66.55;99339.44;6289054;22;42729;-80
2023/01/02 17:35:26;;;;;;;9.00;2.90;;;;;;;14.44;66.49;99353.34;6342711;22;42360;-79
2023/01/02 17:37:54;;;;;;;4.90;2.30;;;;;;;14.49;66.54;99358.31;6289250;22;39125;-79
2023/01/02 17:40:24;;;;;;;7.70;2.83;;;;;;;14.37;66.35;99336.03;6289323;22;40714;-79
2023/01/02 17:42:54;;;;;;;5.40;2.43;;;;;;;14.51;66.68;99375.91;6315030;22;41547;-79
2023/01/02 17:45:23;;;;;;;6.43;2.63;;;;;;;14.41;67.93;99374.88;6288319;22;41512;-80
2023/01/02 17:47:52;;;;;;;5.67;3.17;;;;;;;14.42;68.46;99397.91;6288720;22;39843;-80
2023/01/02 17:50:20;;;;;;;4.73;2.50;;;;;;;14.39;69.14;99398.06;6289165;22;41148;-80
2023/01/02 17:52:49;;;;;;;6.00;2.53;;;;;;;14.33;69.59;99402.03;6342272;22;44262;-82
2023/01/02 17:55:17;;;;;;;2.87;1.27;;;;;;;14.32;68.23;99423.44;6288816;22;41676;-80
2023/01/02 17:57:45;;;;;;;1.60;1.10;;;;;;;14.09;66.98;99411.69;6289442;22;40261;-79
2023/01/02 18:00:16;;;;;;;1.80;0.90;;;;;;;14.12;66.83;99423.94;6314662;22;42241;-81
2023/01/02 18:02:48;;;;;;;0.73;0.50;;;;;;;13.99;66.13;99416.78;6314998;22;41696;-80
2023/01/02 18:05:16;;;;;;;0.77;0.73;;;;;;;14.04;65.85;99440.44;6288795;22;42885;-80
2023/01/02 18:07:44;;;;;;;0.87;0.67;;;;;;;13.85;66.47;99440.81;6314888;22;40765;-80
2023/01/02 18:10:12;;;;;;;0.77;0.50;;;;;;;13.89;66.09;99452.13;6288852;22;41755;-81
2023/01/02 18:12:41;;;;;;;1.27;0.47;;;;;;;13.86;66.08;99446.97;6342209;22;43284;-82
2023/01/02 18:15:12;;;;;;;1.03;0.50;;;;;;;13.77;66.73;99443.13;6314423;22;41843;-80
2023/01/02 18:17:40;;;;;;;0.77;0.60;;;;;;;13.74;67.06;99456.63;6289120;22;39331;-81
2023/01/02 18:20:13;;;;;;;1.10;0.67;;;;;;;13.63;67.45;99446.69;6314599;22;41800;-81
2023/01/02 18:22:41;;;;;;;0.87;0.80;;;;;;;13.62;67.15;99449.47;6314708;22;41637;-82
2023/01/02 18:25:17;;;;;;;1.47;1.00;;;;;;;13.62;67.62;99450.31;6314925;22;41192;-81
